Jourdanton, TX (78026)

3:52 PM CDT on August 30, 2015 (GMT -0500)
Pleasanton | | Change Station
CLOSE
Current Station
Personal Weather Station
Location: Pleasanton, TX
Elevation: 413 ft
Nearby Weather Stations

Elev 413 ft 28.97 °N, 98.49 °W | Updated 7 seconds ago

Clear
Clear
93.9 °F
Feels Like 94 °F
N
0.2
Wind Variable Wind from West
Gusts 2.5 mph

Today
High -- | Low -- °F
--% Chance of Precip.
Yesterday
High -- | Low -- °F
Precip. -- in
7:10 AM 7:58 PM
Full, 98% visible
Pressure 29.97 in
Visibility 10.0 miles
Clouds Clear
Heat Index 94 °F
Dew Point 60 °F
Humidity 33%
Rainfall 0.00 in
Snow Depth Not available.
UV 3.0 out of 12
Pollen 8.10 out of 12
Air Quality Not available.
Flu Activity Not available.
METAR KPEZ 302035Z AUTO 13006KT 10SM CLR 35/15 A2997 RMK AO2 T03490147
Pressure 29.97 in
Visibility 10.0 miles
Clouds Clear
Heat Index 94 °F
Dew Point 60 °F
Humidity 33%
Rainfall 0.00 in
Snow Depth Not available.
UV 3.0 out of 12
Pollen 8.10 out of 12
Air Quality Not available.
Flu Activity Not available.
METAR KPEZ 302035Z AUTO 13006KT 10SM CLR 35/15 A2997 RMK AO2 T03490147
Nowcast | as of 3:29 PM CDT on August 30, 2015

Isolated showers and thunderstorms will be possible across the region through sunset. Rainfall amounts will generally be 1/4 inch or less with a few locations getting up to one inch. Best chances will be along and to the west of Interstate 35. East of Interstate 35 a few light showers are possible. Rainfall amounts will be less than one tenth of an inch.

×

10-Day Weather Forecast

×

Almanac

Astronomy

Aug. 30, 2015 Rise Set
Actual Time
Civil Twilight
Nautical Twilight
Astronomical Twilight
Moon
Length of Visible Light
Length of Day
Tomorrow will be .
, % of the Moon is Illuminated

Today's Extremes

State Highs State Lows

Community

WunderPhotos

Upload Photos

1,851,057 photos uploaded!

WunderBlogs® & News

Nearby

Air Quality

  Air Quality AQ Index Pollutant
Not available.

Snow Depth

Station Depth Elevation

Earthquake Activity

City Distance Mag. Time & Date
Minimum magnitude displayed is 2.5.

Coastal Water Temperatures

Place Temperature

Stations

Nearby Weather Stations

Station Location Temp. Windchill Dew Point Humidity Wind Precip. Elev Updated Type